Time;durP1;ratioP1;P1;durP2;ratioP2;P2;SDS_P1;SDS_P2;PMS_P1;PMS_P2;Temp;Humidity;BMP_temperature;BMP_pressure;BME280_temperature;BME280_humidity;BME280_pressure;Samples;Min_cycle;Max_cycle;Signal;HPM_P1;HPM_P2
2021/08/12 00:00:38;;;;;;;6.57;4.78;;;;;;;20.68;68.15;97118.41;5030540;28;20194;-63
2021/08/12 00:03:04;;;;;;;8.60;4.53;;;;;;;20.60;68.48;97113.72;5035130;28;20268;-63
2021/08/12 00:05:29;;;;;;;5.03;4.45;;;;;;;20.60;68.55;97113.72;5035135;28;20600;-63
2021/08/12 00:07:55;;;;;;;5.10;4.50;;;;;;;20.55;68.82;97116.44;5036943;28;20197;-64
2021/08/12 00:10:20;;;;;;;5.82;4.63;;;;;;;20.55;68.74;97108.44;5037736;28;20647;-64
2021/08/12 00:12:45;;;;;;;6.30;4.65;;;;;;;20.43;69.40;97110.69;5036875;28;20358;-64
2021/08/12 00:15:11;;;;;;;6.03;4.90;;;;;;;20.36;69.41;97108.34;5037334;28;20197;-64
2021/08/12 00:17:37;;;;;;;5.97;4.72;;;;;;;20.31;69.80;97114.50;5036361;28;20206;-63
2021/08/12 00:20:02;;;;;;;6.22;4.60;;;;;;;20.32;69.81;97113.44;5037430;28;20289;-64
2021/08/12 00:22:28;;;;;;;7.88;4.82;;;;;;;20.34;69.70;97110.47;5036795;28;20313;-64
2021/08/12 00:24:53;;;;;;;8.02;4.95;;;;;;;20.30;69.87;97114.75;5037240;28;20628;-64
2021/08/12 00:27:19;;;;;;;7.57;4.50;;;;;;;20.17;70.44;97112.75;5037171;28;20225;-68
2021/08/12 00:29:44;;;;;;;5.88;4.47;;;;;;;20.24;70.23;97114.00;5035867;28;20175;-63
2021/08/12 00:32:10;;;;;;;4.93;4.03;;;;;;;20.17;70.63;97102.88;5037413;28;20220;-63
2021/08/12 00:34:35;;;;;;;5.13;4.63;;;;;;;20.14;71.07;97107.97;5036458;28;20178;-63
2021/08/12 00:37:02;;;;;;;4.95;4.32;;;;;;;20.27;70.64;97102.00;5036309;28;20261;-63
2021/08/12 00:39:28;;;;;;;6.93;4.28;;;;;;;20.21;71.25;97103.94;5036456;28;20226;-72
2021/08/12 00:41:53;;;;;;;9.20;4.57;;;;;;;20.09;71.95;97100.84;5036907;28;20228;-64
2021/08/12 00:44:19;;;;;;;4.95;4.43;;;;;;;20.23;72.15;97106.28;5037115;28;20224;-64
2021/08/12 00:46:44;;;;;;;6.70;4.70;;;;;;;20.02;73.44;97107.53;5036774;28;20222;-63
2021/08/12 00:49:10;;;;;;;6.68;4.65;;;;;;;19.90;73.73;97103.38;5037359;28;20183;-62
2021/08/12 00:51:39;;;;;;;5.95;5.00;;;;;;;19.87;74.03;97101.28;5036292;28;20226;-64
2021/08/12 00:54:04;;;;;;;8.18;5.32;;;;;;;19.92;74.04;97108.44;5037040;28;20655;-64
2021/08/12 00:56:30;;;;;;;6.55;5.13;;;;;;;20.03;74.13;97107.28;5035512;28;20213;-64
2021/08/12 00:58:55;;;;;;;5.72;4.50;;;;;;;20.06;74.05;97106.69;5037084;28;20187;-64
2021/08/12 01:01:21;;;;;;;5.28;4.78;;;;;;;19.83;74.91;97105.59;5036612;28;20194;-66
2021/08/12 01:03:46;;;;;;;5.57;4.93;;;;;;;19.75;75.53;97108.81;5035140;28;20319;-64
2021/08/12 01:06:17;;;;;;;11.52;4.45;;;;;;;19.63;76.12;97116.34;5037198;28;20186;-63
2021/08/12 01:09:00;;;;;;;5.78;4.80;;;;;;;19.69;76.14;97115.25;5036459;28;20188;-64
2021/08/12 01:11:40;;;;;;;5.82;4.90;;;;;;;19.63;76.41;97119.00;5036526;28;20530;-69
2021/08/12 01:14:50;;;;;;;5.68;4.97;;;;;;;19.56;76.79;97121.16;5034331;28;20254;-62
2021/08/12 01:17:21;;;;;;;6.13;5.50;;;;;;;19.63;76.42;97124.31;5021450;28;20625;-61
2021/08/12 01:20:05;;;;;;;5.93;4.80;;;;;;;19.58;76.67;97124.34;5033051;28;20175;-61
2021/08/12 01:22:34;;;;;;;6.57;5.07;;;;;;;19.45;77.12;97120.44;5032859;28;20671;-62
2021/08/12 01:25:05;;;;;;;6.35;5.07;;;;;;;19.48;77.08;97127.06;5033604;28;20194;-62
2021/08/12 01:27:34;;;;;;;6.00;4.85;;;;;;;19.49;76.92;97120.69;5032218;28;20272;-64
2021/08/12 01:30:12;;;;;;;7.60;5.65;;;;;;;19.41;77.18;97123.88;5033236;28;20253;-62
2021/08/12 01:33:05;;;;;;;7.15;4.82;;;;;;;19.31;77.79;97123.94;5032244;28;20639;-62
2021/08/12 01:35:32;;;;;;;9.02;5.20;;;;;;;19.43;77.26;97117.25;5032654;28;20171;-65
2021/08/12 01:38:05;;;;;;;8.52;5.35;;;;;;;19.58;76.68;97118.25;5033014;28;20203;-62
2021/08/12 01:40:32;;;;;;;6.38;5.28;;;;;;;19.46;77.03;97119.38;5032319;28;20797;-64
2021/08/12 01:43:01;;;;;;;6.18;5.28;;;;;;;19.48;76.94;97117.25;5033594;28;20237;-64
2021/08/12 01:45:28;;;;;;;7.50;5.30;;;;;;;19.30;77.63;97114.38;5033228;28;20241;-68
2021/08/12 01:47:54;;;;;;;8.90;5.65;;;;;;;19.35;77.73;97115.16;5032501;28;20179;-61
2021/08/12 01:50:21;;;;;;;6.13;5.13;;;;;;;19.14;78.88;97108.34;5032975;28;20272;-62
2021/08/12 01:52:49;;;;;;;11.13;5.57;;;;;;;19.08;79.24;97117.41;5032179;28;20189;-62
2021/08/12 01:55:17;;;;;;;9.70;4.82;;;;;;;18.99;79.93;97113.72;5032032;28;20182;-61
2021/08/12 01:57:44;;;;;;;9.35;5.72;;;;;;;18.95;80.12;97116.13;5031134;28;20211;-62
2021/08/12 02:00:11;;;;;;;8.02;5.90;;;;;;;19.07;79.42;97116.59;5033367;28;20198;-61
2021/08/12 02:02:37;;;;;;;11.98;5.95;;;;;;;19.21;78.87;97116.03;5031868;28;20182;-62
2021/08/12 02:05:04;;;;;;;8.20;5.95;;;;;;;19.22;78.85;97118.41;5032722;28;20187;-62
2021/08/12 02:07:31;;;;;;;8.45;6.15;;;;;;;19.14;79.15;97115.53;5031983;28;20190;-70
2021/08/12 02:09:57;;;;;;;6.68;5.93;;;;;;;18.98;80.32;97109.47;5033359;28;20183;-61
2021/08/12 02:12:22;;;;;;;7.37;6.03;;;;;;;19.03;80.04;97104.16;5033031;28;20547;-62
2021/08/12 02:14:47;;;;;;;7.60;6.10;;;;;;;19.13;79.47;97096.13;5032135;28;20801;-65
2021/08/12 02:17:13;;;;;;;6.20;5.20;;;;;;;19.21;78.79;97100.09;5032273;28;20273;-62
2021/08/12 02:19:39;;;;;;;8.88;6.18;;;;;;;19.10;79.08;97100.13;5031747;28;20186;-62
2021/08/12 02:22:12;;;;;;;8.82;5.70;;;;;;;18.93;80.03;97093.56;5032994;28;20186;-62
2021/08/12 02:24:47;;;;;;;8.27;5.57;;;;;;;19.07;79.02;97089.25;5030045;28;20210;-62
2021/08/12 02:27:17;;;;;;;5.55;4.95;;;;;;;18.98;79.33;97091.69;5032820;28;20174;-62
2021/08/12 02:29:44;;;;;;;5.40;4.68;;;;;;;18.96;79.22;97093.81;5031096;28;20236;-62
2021/08/12 02:32:13;;;;;;;9.57;5.60;;;;;;;19.04;78.70;97087.94;5032426;28;20706;-62
2021/08/12 02:34:40;;;;;;;7.57;5.10;;;;;;;19.12;78.14;97091.88;5031601;28;20236;-62
2021/08/12 02:37:10;;;;;;;11.88;5.30;;;;;;;18.94;78.84;97095.97;5032334;28;20248;-61
2021/08/12 02:39:37;;;;;;;7.07;5.43;;;;;;;18.90;79.16;97092.22;5031468;28;20237;-62
2021/08/12 02:42:03;;;;;;;8.25;5.55;;;;;;;18.86;79.39;97093.06;5032598;28;20198;-61
2021/08/12 02:44:30;;;;;;;8.07;4.83;;;;;;;18.75;79.63;97086.19;5030554;28;20634;-69
2021/08/12 02:46:59;;;;;;;8.50;5.10;;;;;;;18.78;79.49;97094.41;5031783;28;20214;-62
2021/08/12 02:49:29;;;;;;;6.95;4.78;;;;;;;18.89;78.92;97090.63;5031750;28;20179;-62
2021/08/12 02:51:57;;;;;;;5.82;5.10;;;;;;;18.92;78.54;97082.13;5031599;28;20182;-62
2021/08/12 02:54:23;;;;;;;6.60;5.38;;;;;;;18.77;79.37;97082.22;5032234;28;20186;-62
2021/08/12 02:56:48;;;;;;;6.05;5.15;;;;;;;18.78;79.11;97089.09;5030350;28;20199;-62
2021/08/12 02:59:15;;;;;;;6.55;4.90;;;;;;;18.90;78.65;97080.81;5031872;28;20182;-62
2021/08/12 03:01:42;;;;;;;8.27;5.13;;;;;;;18.98;78.25;97080.25;5030599;28;20197;-62
2021/08/12 03:04:08;;;;;;;6.10;5.35;;;;;;;19.05;77.81;97088.75;5031559;28;20175;-62
2021/08/12 03:06:34;;;;;;;6.30;5.18;;;;;;;19.00;77.93;97080.78;5030548;28;20252;-63
2021/08/12 03:09:00;;;;;;;8.23;5.47;;;;;;;18.68;79.60;97081.16;5031834;28;20339;-62
2021/08/12 03:11:26;;;;;;;6.57;5.90;;;;;;;18.67;79.74;97080.38;5031391;28;20190;-62
2021/08/12 03:13:53;;;;;;;7.80;6.17;;;;;;;18.83;79.00;97073.16;5031234;28;20761;-61
2021/08/12 03:16:20;;;;;;;6.97;5.90;;;;;;;18.73;79.48;97067.06;5031038;28;20611;-61
2021/08/12 03:18:45;;;;;;;8.25;5.70;;;;;;;18.54;80.31;97070.34;5030516;28;20261;-62
2021/08/12 03:21:13;;;;;;;6.17;5.37;;;;;;;18.52;80.55;97061.00;5031595;28;20276;-62
2021/08/12 03:23:39;;;;;;;6.27;5.67;;;;;;;18.26;82.26;97068.25;5029263;28;20186;-62
2021/08/12 03:26:04;;;;;;;6.23;5.63;;;;;;;18.47;81.12;97069.78;5031210;28;20187;-62
2021/08/12 03:28:31;;;;;;;6.97;5.33;;;;;;;18.32;81.98;97071.69;5031145;28;20194;-69
2021/08/12 03:30:57;;;;;;;7.30;5.37;;;;;;;18.37;81.53;97075.13;5029498;28;20289;-66
2021/08/12 03:33:24;;;;;;;8.17;5.70;;;;;;;18.46;81.20;97070.03;5030730;28;20266;-62
2021/08/12 03:35:49;;;;;;;7.83;5.67;;;;;;;18.13;82.75;97074.09;5030402;28;20996;-61
2021/08/12 03:38:15;;;;;;;8.80;6.03;;;;;;;18.17;82.91;97075.13;5030592;28;20213;-61
2021/08/12 03:40:40;;;;;;;7.93;5.77;;;;;;;18.13;83.21;97069.56;5029687;28;20288;-61
2021/08/12 03:43:06;;;;;;;9.73;6.10;;;;;;;18.11;83.34;97070.94;5031153;28;20190;-61
2021/08/12 03:45:31;;;;;;;10.20;5.83;;;;;;;18.16;82.99;97081.53;5031052;28;20193;-69
2021/08/12 03:47:56;;;;;;;9.13;6.27;;;;;;;17.94;83.99;97081.81;5030543;28;20260;-62
2021/08/12 03:50:22;;;;;;;8.80;5.97;;;;;;;18.01;83.73;97076.22;5031035;28;20266;-61
2021/08/12 03:52:47;;;;;;;7.70;6.10;;;;;;;17.92;84.50;97078.63;5030247;28;20205;-62
2021/08/12 03:55:12;;;;;;;9.93;6.47;;;;;;;17.97;84.41;97083.13;5030690;28;20197;-62
2021/08/12 03:57:42;;;;;;;10.80;6.27;;;;;;;17.89;84.79;97084.44;5029840;28;20256;-62
2021/08/12 04:00:09;;;;;;;8.13;6.10;;;;;;;17.86;85.08;97077.81;5031189;28;20636;-62
2021/08/12 04:02:34;;;;;;;6.87;6.17;;;;;;;17.75;85.60;97084.19;5029868;28;20673;-69
2021/08/12 04:05:00;;;;;;;6.70;6.00;;;;;;;17.85;85.12;97078.09;5030520;28;20187;-62
2021/08/12 04:07:25;;;;;;;6.30;5.43;;;;;;;17.85;85.15;97086.03;5030870;28;20190;-61
2021/08/12 04:09:50;;;;;;;6.60;5.47;;;;;;;17.71;85.59;97090.28;5030745;28;20195;-61
2021/08/12 04:12:16;;;;;;;7.00;5.97;;;;;;;17.83;85.30;97082.88;5030978;28;20221;-62
2021/08/12 04:14:41;;;;;;;9.63;5.97;;;;;;;17.88;84.79;97082.06;5029815;28;20193;-62
2021/08/12 04:17:06;;;;;;;8.93;6.70;;;;;;;17.79;85.22;97082.59;5030878;28;20671;-62
2021/08/12 04:19:32;;;;;;;7.73;5.47;;;;;;;17.75;85.39;97091.34;5030631;28;20186;-69
2021/08/12 04:21:57;;;;;;;6.77;5.90;;;;;;;17.69;85.76;97089.75;5030288;28;20197;-61
2021/08/12 04:24:23;;;;;;;10.57;5.50;;;;;;;17.80;85.23;97086.84;5030365;28;20182;-62
2021/08/12 04:26:48;;;;;;;6.47;5.23;;;;;;;17.87;84.89;97083.94;5029597;28;20190;-62
2021/08/12 04:29:14;;;;;;;6.03;5.00;;;;;;;17.97;84.43;97088.44;5030817;28;20210;-62
2021/08/12 04:31:39;;;;;;;7.97;5.20;;;;;;;17.96;84.36;97081.53;5029961;28;20367;-62
2021/08/12 04:34:04;;;;;;;6.53;5.20;;;;;;;18.02;84.27;97081.25;5029349;28;20269;-61
2021/08/12 04:36:30;;;;;;;6.67;5.13;;;;;;;18.19;83.16;97080.97;5030582;28;20620;-62
2021/08/12 04:38:55;;;;;;;6.60;5.10;;;;;;;18.40;82.23;97087.03;5030220;28;20186;-61
2021/08/12 04:41:22;;;;;;;7.32;5.15;;;;;;;18.48;81.22;97079.34;5030422;28;20262;-63
2021/08/12 04:43:47;;;;;;;5.77;4.90;;;;;;;18.68;80.25;97081.16;5029527;28;20237;-62
2021/08/12 04:46:13;;;;;;;6.60;4.80;;;;;;;18.87;78.54;97076.84;5030084;28;20190;-62
2021/08/12 04:48:38;;;;;;;6.73;5.10;;;;;;;18.99;78.25;97080.00;5030526;28;20179;-62
2021/08/12 04:51:04;;;;;;;7.18;4.88;;;;;;;19.22;76.93;97083.88;5033406;28;20222;-61
2021/08/12 04:53:29;;;;;;;8.15;4.35;;;;;;;19.27;76.93;97075.88;5034024;28;20186;-62
2021/08/12 04:55:54;;;;;;;5.53;4.50;;;;;;;19.48;75.91;97073.91;5032591;28;20182;-66
2021/08/12 04:58:20;;;;;;;6.88;4.57;;;;;;;19.69;75.19;97075.34;5033853;28;20210;-62
2021/08/12 05:00:45;;;;;;;6.05;4.50;;;;;;;19.92;74.00;97081.81;5033494;28;20191;-62
2021/08/12 05:03:10;;;;;;;5.13;4.40;;;;;;;20.28;72.32;97079.66;5033959;28;20199;-63
2021/08/12 05:05:36;;;;;;;6.85;4.78;;;;;;;20.70;70.70;97078.97;5033180;28;20190;-69
2021/08/12 05:08:02;;;;;;;6.15;4.35;;;;;;;21.21;68.49;97078.38;5034369;28;20194;-64
2021/08/12 05:10:27;;;;;;;5.63;4.03;;;;;;;21.56;67.51;97085.88;5034122;28;20195;-65
2021/08/12 05:12:53;;;;;;;4.47;3.97;;;;;;;21.80;66.20;97080.44;5031664;28;20194;-67
2021/08/12 05:15:19;;;;;;;7.90;4.70;;;;;;;21.87;65.80;97084.31;5033255;28;20189;-65
2021/08/12 05:17:44;;;;;;;6.93;3.90;;;;;;;21.91;65.22;97082.66;5032916;28;20198;-64
2021/08/12 05:20:10;;;;;;;4.85;3.90;;;;;;;21.92;65.28;97086.13;5033431;28;20601;-69
2021/08/12 05:22:35;;;;;;;6.22;4.30;;;;;;;21.89;65.55;97086.72;5033175;28;20635;-70
2021/08/12 05:25:03;;;;;;;7.18;4.95;;;;;;;21.67;66.38;97089.19;5033357;28;20183;-64
2021/08/12 05:27:29;;;;;;;5.32;4.82;;;;;;;21.51;66.47;97094.72;5032821;28;20194;-64
2021/08/12 05:29:54;;;;;;;4.75;4.28;;;;;;;21.27;67.60;97090.56;5033169;28;20776;-64
2021/08/12 05:32:19;;;;;;;5.78;4.70;;;;;;;21.13;68.06;97088.56;5033536;28;20218;-64
2021/08/12 05:34:45;;;;;;;6.60;4.20;;;;;;;21.05;68.74;97091.88;5032458;28;20621;-64
2021/08/12 05:37:10;;;;;;;4.60;4.20;;;;;;;21.12;68.24;97092.28;5033581;28;20207;-64
2021/08/12 05:39:35;;;;;;;5.75;4.70;;;;;;;21.18;67.76;97102.94;5032903;28;20266;-71
2021/08/12 05:42:01;;;;;;;6.22;4.22;;;;;;;21.27;67.61;97101.22;5032768;28;20187;-64
2021/08/12 05:44:26;;;;;;;4.57;4.18;;;;;;;21.32;67.34;97106.47;5033029;28;20178;-65
2021/08/12 05:46:52;;;;;;;6.75;4.70;;;;;;;21.37;67.08;97099.22;5030753;28;20196;-64
2021/08/12 05:49:21;;;;;;;5.43;4.88;;;;;;;21.50;66.64;97114.50;5033449;28;20191;-64
2021/08/12 05:51:47;;;;;;;6.75;5.13;;;;;;;21.82;66.25;97107.63;5031078;28;20552;-64
2021/08/12 05:54:12;;;;;;;6.97;4.70;;;;;;;22.32;64.03;97104.16;5033691;28;20197;-64
2021/08/12 05:56:37;;;;;;;5.18;4.68;;;;;;;22.77;62.57;97113.25;5029960;28;20237;-71
2021/08/12 05:59:03;;;;;;;5.90;4.57;;;;;;;23.21;61.48;97117.19;5032871;28;20621;-65
2021/08/12 06:01:28;;;;;;;5.25;4.13;;;;;;;23.59;60.00;97112.41;5031491;28;20624;-65
2021/08/12 06:03:54;;;;;;;6.90;4.88;;;;;;;23.80;59.24;97118.88;5030981;28;20191;-64
2021/08/12 06:06:20;;;;;;;5.03;4.18;;;;;;;23.85;59.30;97126.00;5032698;28;20190;-65
2021/08/12 06:08:45;;;;;;;5.78;4.47;;;;;;;23.91;58.90;97125.56;5031489;28;20628;-66
2021/08/12 06:11:11;;;;;;;5.65;4.40;;;;;;;23.75;59.10;97124.34;5032965;28;20190;-65
2021/08/12 06:13:36;;;;;;;6.80;4.25;;;;;;;23.61;58.79;97121.72;5032110;28;20187;-72
2021/08/12 06:16:01;;;;;;;5.45;4.03;;;;;;;23.28;60.28;97120.28;5031917;28;20186;-65
2021/08/12 06:18:27;;;;;;;4.90;4.40;;;;;;;23.13;61.12;97116.00;5032727;28;20207;-65
2021/08/12 06:20:52;;;;;;;8.25;4.05;;;;;;;23.05;62.02;97116.72;5030454;28;20186;-63
2021/08/12 06:23:18;;;;;;;6.68;5.03;;;;;;;22.91;62.92;97120.47;5031135;28;20695;-63
2021/08/12 06:25:43;;;;;;;6.35;4.55;;;;;;;23.26;61.99;97119.78;5029821;28;20186;-63
2021/08/12 06:28:09;;;;;;;7.32;4.75;;;;;;;23.45;61.85;97119.66;5031362;28;20689;-62
2021/08/12 06:30:35;;;;;;;6.63;4.82;;;;;;;23.74;60.83;97114.72;5032568;28;20187;-62
2021/08/12 06:33:01;;;;;;;5.75;5.05;;;;;;;23.59;61.07;97123.09;5032031;28;20198;-63
2021/08/12 06:35:32;;;;;;;5.65;4.53;;;;;;;23.54;61.79;97105.28;5031641;28;20580;-63
2021/08/12 06:37:58;;;;;;;6.80;5.35;;;;;;;23.62;61.04;97101.09;5031281;28;20199;-62
2021/08/12 06:40:24;;;;;;;9.93;5.20;;;;;;;23.62;60.82;97093.06;5032048;28;20664;-62
2021/08/12 06:42:51;;;;;;;6.05;4.88;;;;;;;23.73;60.39;97096.31;5031579;28;20179;-62
2021/08/12 06:45:21;;;;;;;6.88;5.05;;;;;;;23.85;60.03;97091.97;5031027;28;20205;-64
2021/08/12 06:47:50;;;;;;;6.40;4.50;;;;;;;24.11;59.33;97096.72;5031142;28;20175;-63
2021/08/12 06:50:17;;;;;;;6.45;4.60;;;;;;;24.29;58.54;97095.78;5032031;28;20269;-63
2021/08/12 06:52:43;;;;;;;6.35;4.63;;;;;;;24.60;57.70;97099.22;5031360;28;20194;-63
2021/08/12 06:55:09;;;;;;;4.88;4.20;;;;;;;24.90;57.10;97100.34;5031646;28;20655;-63
2021/08/12 06:57:34;;;;;;;5.40;4.07;;;;;;;25.19;55.92;97105.13;5030450;28;20305;-62
2021/08/12 07:00:00;;;;;;;6.35;4.40;;;;;;;25.26;56.05;97108.13;5031394;28;20213;-63
2021/08/12 07:02:25;;;;;;;5.07;4.53;;;;;;;25.51;54.81;97104.72;5030379;28;20194;-62
2021/08/12 07:04:51;;;;;;;5.93;3.90;;;;;;;25.76;54.42;97110.44;5029468;28;20214;-61
2021/08/12 07:07:17;;;;;;;6.03;4.07;;;;;;;25.94;54.22;97114.69;5032060;28;20186;-63
2021/08/12 07:09:42;;;;;;;5.30;4.32;;;;;;;26.16;53.41;97127.94;5030639;28;20226;-64
2021/08/12 07:12:09;;;;;;;5.22;4.55;;;;;;;26.38;52.58;97133.16;5030997;28;20611;-62
2021/08/12 07:14:34;;;;;;;4.93;4.03;;;;;;;26.31;52.68;97126.69;5031670;28;20210;-62
2021/08/12 07:17:00;;;;;;;12.07;4.35;;;;;;;26.13;53.44;97133.19;5031044;28;20333;-62
2021/08/12 07:19:26;;;;;;;5.13;4.63;;;;;;;25.82;54.59;97128.75;5031635;28;20277;-62
2021/08/12 07:21:52;;;;;;;4.55;4.15;;;;;;;25.66;54.82;97127.66;5030810;28;20646;-60
2021/08/12 07:24:18;;;;;;;5.70;3.92;;;;;;;25.81;54.48;97121.81;5031440;28;20187;-61
2021/08/12 07:26:47;;;;;;;4.35;3.95;;;;;;;25.88;54.33;97124.03;5030329;28;20582;-61
2021/08/12 07:29:12;;;;;;;4.15;3.78;;;;;;;25.90;54.00;97133.34;5030441;28;20191;-60
2021/08/12 07:31:38;;;;;;;5.90;4.32;;;;;;;26.03;53.73;97136.97;5031148;28;20241;-62
2021/08/12 07:34:03;;;;;;;6.47;4.53;;;;;;;25.84;54.43;97128.44;5030446;28;20187;-62
2021/08/12 07:36:29;;;;;;;5.97;4.68;;;;;;;25.88;54.47;97129.38;5031142;28;20240;-63
2021/08/12 07:38:54;;;;;;;5.97;4.35;;;;;;;25.79;54.37;97128.63;5030425;28;20183;-62
2021/08/12 07:41:20;;;;;;;4.85;4.35;;;;;;;25.79;54.45;97120.56;5029983;28;20313;-62
2021/08/12 07:43:45;;;;;;;8.18;4.30;;;;;;;25.74;54.12;97118.03;5030516;28;20580;-62
2021/08/12 07:46:11;;;;;;;4.40;4.00;;;;;;;25.55;54.28;97121.78;5031079;28;20197;-62
2021/08/12 07:48:37;;;;;;;5.20;4.70;;;;;;;25.43;54.81;97118.91;5031032;28;20550;-62
2021/08/12 07:51:03;;;;;;;7.80;3.88;;;;;;;25.65;53.75;97113.44;5030630;28;20800;-62
2021/08/12 07:53:28;;;;;;;4.90;3.75;;;;;;;25.91;53.38;97112.66;5030820;28;20233;-66
2021/08/12 07:55:56;;;;;;;12.63;4.65;;;;;;;25.85;53.33;97111.25;5029241;28;20194;-63
2021/08/12 07:58:23;;;;;;;4.38;3.50;;;;;;;26.00;52.82;97119.59;5030888;28;20665;-62
2021/08/12 08:00:49;;;;;;;3.97;3.40;;;;;;;26.26;51.79;97121.47;5029838;28;20522;-63
2021/08/12 08:03:16;;;;;;;4.75;3.45;;;;;;;26.46;51.24;97118.91;5030591;28;20193;-62
2021/08/12 08:05:41;;;;;;;3.58;3.28;;;;;;;26.50;51.73;97116.38;5030269;28;20269;-68
2021/08/12 08:08:06;;;;;;;5.35;3.85;;;;;;;26.61;51.51;97120.28;5029250;28;20230;-62
2021/08/12 08:10:32;;;;;;;4.88;3.97;;;;;;;26.52;51.55;97119.53;5030854;28;20263;-62
2021/08/12 08:12:57;;;;;;;4.00;3.40;;;;;;;26.55;51.48;97118.09;5029254;28;20643;-62
2021/08/12 08:15:23;;;;;;;5.68;3.83;;;;;;;26.34;51.75;97115.31;5030681;28;20195;-63
2021/08/12 08:17:48;;;;;;;6.30;3.55;;;;;;;26.55;51.87;97121.56;5030085;28;20277;-62
2021/08/12 08:20:14;;;;;;;4.28;3.70;;;;;;;26.56;52.08;97117.00;5029680;28;20198;-62
2021/08/12 08:22:40;;;;;;;4.60;3.72;;;;;;;26.58;52.18;97112.09;5013199;28;20205;-62
2021/08/12 08:25:08;;;;;;;5.00;4.15;;;;;;;26.28;52.62;97112.00;5032055;28;20182;-62
2021/08/12 08:27:34;;;;;;;5.47;3.45;;;;;;;26.31;52.82;97119.41;5035109;28;20222;-62
2021/08/12 08:29:59;;;;;;;7.97;3.80;;;;;;;26.26;53.44;97122.28;5033993;28;20541;-62
2021/08/12 08:32:25;;;;;;;4.63;4.22;;;;;;;26.41;53.24;97116.41;5034208;28;20182;-62
2021/08/12 08:34:51;;;;;;;5.63;4.03;;;;;;;26.25;53.58;97118.00;5033845;28;20195;-62
2021/08/12 08:37:18;;;;;;;7.20;3.70;;;;;;;25.82;54.37;97112.66;5033429;28;20211;-63
2021/08/12 08:39:43;;;;;;;4.97;3.47;;;;;;;26.01;54.36;97112.34;5033413;28;20300;-69
2021/08/12 08:42:11;;;;;;;3.78;3.42;;;;;;;26.29;54.59;97108.22;5033091;28;20190;-62
2021/08/12 08:44:38;;;;;;;5.78;3.65;;;;;;;26.68;53.75;97112.53;5033949;28;20543;-62
2021/08/12 08:47:07;;;;;;;5.20;4.28;;;;;;;26.95;52.72;97105.16;5033633;28;20406;-62
2021/08/12 08:49:37;;;;;;;3.78;3.38;;;;;;;26.66;53.21;97111.25;5033747;28;20193;-62
2021/08/12 08:52:04;;;;;;;3.72;3.33;;;;;;;26.74;53.76;97113.94;5033721;28;20167;-62
2021/08/12 08:54:31;;;;;;;3.72;3.42;;;;;;;26.95;53.04;97111.31;5032617;28;20662;-62
2021/08/12 08:56:57;;;;;;;4.70;3.47;;;;;;;27.19;52.01;97118.81;5032238;28;20273;-62
2021/08/12 08:59:23;;;;;;;6.72;3.92;;;;;;;26.87;52.03;97115.63;5033900;28;20277;-62
2021/08/12 09:01:49;;;;;;;3.63;3.22;;;;;;;26.82;52.70;97113.09;5033064;28;20183;-62
2021/08/12 09:04:15;;;;;;;3.65;3.10;;;;;;;26.62;53.46;97115.69;5033979;28;20201;-62
2021/08/12 09:06:40;;;;;;;5.10;3.60;;;;;;;26.75;53.19;97107.41;5033677;28;20202;-62
2021/08/12 09:09:05;;;;;;;4.97;3.08;;;;;;;26.70;52.62;97110.28;5033591;28;20762;-62
2021/08/12 09:11:31;;;;;;;4.93;3.38;;;;;;;26.86;53.01;97110.56;5033804;28;20659;-62
2021/08/12 09:13:56;;;;;;;6.55;3.70;;;;;;;26.89;52.03;97116.09;5032947;28;20182;-63
2021/08/12 09:16:34;;;;;;;7.17;3.83;;;;;;;26.99;52.50;97108.75;5033243;28;20266;-62
2021/08/12 09:19:21;;;;;;;4.35;3.47;;;;;;;27.21;52.12;97108.47;5032208;28;20244;-62
2021/08/12 09:21:56;;;;;;;4.18;3.70;;;;;;;27.14;52.61;97105.53;5033116;28;20178;-69
2021/08/12 09:24:22;;;;;;;4.10;3.70;;;;;;;27.19;52.79;97103.44;5033763;28;20193;-62
2021/08/12 09:26:47;;;;;;;5.18;3.90;;;;;;;27.01;53.58;97104.66;5033205;28;20186;-65
2021/08/12 09:29:26;;;;;;;3.67;3.35;;;;;;;27.28;52.19;97106.06;5033407;28;20195;-62
2021/08/12 09:32:03;;;;;;;4.72;3.50;;;;;;;27.15;52.29;97088.25;5017363;28;20249;-62
2021/08/12 09:34:42;;;;;;;3.45;3.08;;;;;;;27.87;50.89;97089.81;5031207;28;20541;-62
2021/08/12 09:37:09;;;;;;;4.60;3.70;;;;;;;28.27;50.43;97090.88;5032544;28;20210;-63
2021/08/12 09:39:36;;;;;;;4.30;3.40;;;;;;;27.54;51.47;97093.25;5032743;28;20215;-63
2021/08/12 09:42:03;;;;;;;8.52;3.60;;;;;;;27.68;51.28;97080.31;5032394;28;20219;-63
2021/08/12 09:44:52;;;;;;;6.15;3.50;;;;;;;27.85;51.09;97087.47;5032935;28;20221;-63
2021/08/12 09:47:23;;;;;;;4.97;4.07;;;;;;;27.84;51.09;97090.47;5021249;28;20206;-62
2021/08/12 09:49:52;;;;;;;5.43;3.90;;;;;;;28.29;49.97;97085.16;5032221;28;20183;-63
2021/08/12 09:52:32;;;;;;;4.40;3.95;;;;;;;28.87;48.38;97087.50;5033031;28;20174;-62
2021/08/12 09:55:20;;;;;;;4.78;3.78;;;;;;;27.76;51.17;97096.72;5031101;28;20181;-62
2021/08/12 09:58:14;;;;;;;8.05;3.55;;;;;;;28.30;50.12;97095.63;5031562;28;20245;-69
2021/08/12 10:00:44;;;;;;;4.80;4.03;;;;;;;28.54;50.41;97092.97;5019023;28;20502;-63
2021/08/12 10:03:25;;;;;;;3.85;3.45;;;;;;;28.71;47.79;97100.06;5032648;28;20182;-64
2021/08/12 10:05:52;;;;;;;7.28;4.10;;;;;;;28.47;46.04;97098.13;5032108;28;20287;-63
2021/08/12 10:08:31;;;;;;;3.70;3.33;;;;;;;28.09;47.34;97084.03;5033223;28;20197;-63
2021/08/12 10:11:14;;;;;;;3.22;2.90;;;;;;;28.19;48.59;97091.78;5032353;28;20205;-63
2021/08/12 10:13:40;;;;;;;4.38;4.00;;;;;;;28.63;48.49;97087.47;5032294;28;20190;-62
2021/08/12 10:16:06;;;;;;;5.80;3.28;;;;;;;28.60;47.23;97088.13;5032488;28;20179;-63
2021/08/12 10:18:31;;;;;;;5.03;3.22;;;;;;;28.62;46.34;97085.91;5031364;28;20559;-63
2021/08/12 10:20:57;;;;;;;4.22;3.30;;;;;;;28.38;46.93;97089.34;5034644;28;20187;-63
2021/08/12 10:23:23;;;;;;;6.55;4.03;;;;;;;28.55;46.87;97091.06;5033836;28;20620;-63
2021/08/12 10:25:57;;;;;;;3.90;3.10;;;;;;;28.29;47.33;97085.97;5031891;28;20186;-71
2021/08/12 10:28:24;;;;;;;3.97;2.95;;;;;;;28.06;46.58;97085.53;5032980;28;20167;-63
2021/08/12 10:30:52;;;;;;;4.32;3.42;;;;;;;27.93;47.20;97075.00;5031959;28;20191;-63
2021/08/12 10:33:18;;;;;;;5.40;3.20;;;;;;;27.82;47.25;97084.63;5031700;28;20186;-63
2021/08/12 10:35:44;;;;;;;7.35;3.42;;;;;;;27.88;48.30;97088.69;5032432;28;20651;-62
2021/08/12 10:38:09;;;;;;;3.85;3.45;;;;;;;27.54;48.47;97084.38;5031711;28;20214;-63
2021/08/12 10:40:37;;;;;;;4.95;3.38;;;;;;;27.91;48.74;97074.56;5030604;28;20227;-63
2021/08/12 10:43:05;;;;;;;3.30;3.00;;;;;;;28.38;47.18;97083.94;5031784;28;20257;-62
2021/08/12 10:45:31;;;;;;;4.80;3.10;;;;;;;28.01;46.59;97083.03;5032416;28;20225;-63
2021/08/12 10:47:58;;;;;;;4.00;3.70;;;;;;;28.42;46.97;97073.28;5031689;28;20190;-63
2021/08/12 10:50:34;;;;;;;7.50;3.40;;;;;;;28.75;46.37;97073.25;5032226;28;20635;-63
2021/08/12 10:53:14;;;;;;;3.60;3.30;;;;;;;28.16;46.69;97072.75;5031604;28;20682;-62
2021/08/12 10:55:48;;;;;;;6.45;4.75;;;;;;;28.75;46.88;97070.53;5031884;28;20175;-63
2021/08/12 10:58:37;;;;;;;5.93;4.00;;;;;;;29.10;46.99;97068.16;5029710;28;20212;-62
2021/08/12 11:01:07;;;;;;;3.90;3.50;;;;;;;29.41;44.95;97060.25;5031286;28;20578;-63
2021/08/12 11:03:32;;;;;;;5.22;3.60;;;;;;;29.63;44.23;97059.75;5032060;28;20240;-63
2021/08/12 11:06:18;;;;;;;4.88;3.72;;;;;;;29.15;45.31;97054.41;5031318;28;20183;-63
2021/08/12 11:08:49;;;;;;;8.68;3.70;;;;;;;28.97;46.13;97063.91;5032036;28;20259;-62
2021/08/12 11:11:35;;;;;;;5.10;3.58;;;;;;;29.18;46.54;97064.56;5031699;28;20195;-62
2021/08/12 11:14:07;;;;;;;7.57;4.15;;;;;;;29.23;46.45;97061.63;5026976;28;20195;-62
2021/08/12 11:16:41;;;;;;;4.68;3.85;;;;;;;29.09;46.94;97053.84;5032042;28;20193;-63
2021/08/12 11:19:22;;;;;;;4.00;3.60;;;;;;;29.55;46.53;97049.84;5030946;28;20669;-63
2021/08/12 11:21:49;;;;;;;4.57;3.90;;;;;;;29.38;44.45;97054.75;5031978;28;20249;-67
2021/08/12 11:24:23;;;;;;;5.38;4.22;;;;;;;29.48;43.15;97055.03;5022050;28;20230;-63
2021/08/12 11:26:49;;;;;;;4.30;3.88;;;;;;;29.82;42.75;97053.69;5011777;28;20621;-67
2021/08/12 11:31:48;;;;;;;4.82;4.13;;;;;;;30.04;41.77;97055.88;5011750;28;20194;-67
2021/08/12 11:34:17;;;;;;;4.22;3.83;;;;;;;29.54;43.93;97050.19;5026776;28;20663;-62
2021/08/12 11:37:10;;;;;;;4.53;3.85;;;;;;;29.49;43.92;97048.50;5026970;28;20199;-62
2021/08/12 11:40:00;;;;;;;3.95;3.55;;;;;;;29.69;43.93;97054.88;5011644;28;20658;-62